NKS3205 KFLL-KMCI
Flight info
| Callsign | NKS3205 |
|---|---|
| Flight time | 2h 50m |
| Altitude | 34000 |
| Route | HROCK2 SMELZ Q116 JAWJA MGMRY JILLS MEM J41 ZAVEL KRTNY MHOMS3 |
| Aircraft | A320/M-SDE3FGHIRWY/LB1 |
Departure
| Time | 2026-05-06 23:58 |
|---|---|
| Airport | Fort Lauderdale Hollywood International Airport (KFLL) |
Arrival
| Time | 2026-05-07 02:48 |
|---|---|
| Airport | Kansas City International Airport (KMCI) |
| Time | Latitude | Longitude | Altitude | Speed | Heading |
|---|---|---|---|---|---|
| 2026-05-06 23:37 | 26.06882 | -80.14211 | 16 ft | 0 kts | 360° |
| 2026-05-06 23:48 | 26.06872 | -80.14211 | 17 ft | 3 kts | 358° |
| 2026-05-06 23:48 | 26.06851 | -80.14209 | 16 ft | 3 kts | 347° |
| 2026-05-06 23:49 | 26.06833 | -80.14202 | 16 ft | 3 kts | 327° |
| 2026-05-06 23:49 | 26.06820 | -80.14189 | 16 ft | 3 kts | 284° |
| 2026-05-06 23:49 | 26.06818 | -80.14182 | 16 ft | 0 kts | 270° |
| 2026-05-06 23:50 | 26.06818 | -80.14183 | 16 ft | 1 kts | 270° |
| 2026-05-06 23:51 | 26.06818 | -80.14225 | 16 ft | 17 kts | 270° |
| 2026-05-06 23:51 | 26.06817 | -80.14388 | 16 ft | 22 kts | 269° |
| 2026-05-06 23:51 | 26.06822 | -80.14565 | 15 ft | 24 kts | 286° |
| 2026-05-06 23:51 | 26.06938 | -80.14703 | 16 ft | 26 kts | 319° |
| 2026-05-06 23:52 | 26.07077 | -80.14843 | 16 ft | 26 kts | 328° |
| 2026-05-06 23:52 | 26.07258 | -80.14852 | 16 ft | 27 kts | 360° |
| 2026-05-06 23:52 | 26.07394 | -80.14939 | 18 ft | 23 kts | 292° |
| 2026-05-06 23:52 | 26.07507 | -80.15074 | 16 ft | 25 kts | 318° |
| 2026-05-06 23:53 | 26.07577 | -80.15175 | 15 ft | 11 kts | 247° |
| 2026-05-06 23:53 | 26.07566 | -80.15263 | 15 ft | 14 kts | 266° |
| 2026-05-06 23:53 | 26.07568 | -80.15389 | 15 ft | 20 kts | 272° |
| 2026-05-06 23:53 | 26.07578 | -80.15558 | 17 ft | 23 kts | 270° |
| 2026-05-06 23:54 | 26.07565 | -80.15737 | 16 ft | 24 kts | 267° |
| 2026-05-06 23:54 | 26.07567 | -80.15923 | 16 ft | 25 kts | 272° |
| 2026-05-06 23:54 | 26.07570 | -80.16117 | 17 ft | 26 kts | 270° |
| 2026-05-06 23:54 | 26.07569 | -80.16323 | 17 ft | 27 kts | 269° |
| 2026-05-06 23:55 | 26.07567 | -80.16529 | 16 ft | 22 kts | 288° |
| 2026-05-06 23:55 | 26.07670 | -80.16549 | 18 ft | 8 kts | 29° |
| 2026-05-06 23:55 | 26.07687 | -80.16499 | 19 ft | 8 kts | 65° |
| 2026-05-06 23:55 | 26.07695 | -80.16453 | 20 ft | 0 kts | 88° |
| 2026-05-06 23:57 | 26.07696 | -80.16450 | 20 ft | 3 kts | 87° |
| 2026-05-06 23:57 | 26.07694 | -80.16210 | 20 ft | 64 kts | 91° |
| 2026-05-06 23:57 | 26.07687 | -80.15493 | 15 ft | 118 kts | 91° |
| 2026-05-06 23:57 | 26.07677 | -80.14431 | 57 ft | 153 kts | 89° |
| 2026-05-06 23:58 | 26.07690 | -80.13271 | 620 ft | 149 kts | 89° |
| 2026-05-06 23:58 | 26.07734 | -80.12112 | 1120 ft | 151 kts | 86° |
| 2026-05-06 23:58 | 26.07778 | -80.10940 | 1591 ft | 153 kts | 88° |
| 2026-05-06 23:58 | 26.07857 | -80.09729 | 1817 ft | 170 kts | 76° |
| 2026-05-06 23:59 | 26.08351 | -80.08437 | 1956 ft | 195 kts | 66° |
| 2026-05-06 23:59 | 26.09227 | -80.07174 | 2099 ft | 223 kts | 37° |
| 2026-05-06 23:59 | 26.10718 | -80.06419 | 2370 ft | 249 kts | 21° |
| 2026-05-06 23:59 | 26.12409 | -80.05751 | 2886 ft | 263 kts | 20° |
| 2026-05-07 00:00 | 26.14153 | -80.05066 | 3650 ft | 268 kts | 17° |
| 2026-05-07 00:00 | 26.16002 | -80.04873 | 4468 ft | 269 kts | 349° |
| 2026-05-07 00:00 | 26.17776 | -80.05459 | 5344 ft | 265 kts | 340° |
| 2026-05-07 00:00 | 26.19525 | -80.06138 | 6152 ft | 268 kts | 341° |
| 2026-05-07 00:01 | 26.21209 | -80.07054 | 6827 ft | 274 kts | 325° |
| 2026-05-07 00:01 | 26.22595 | -80.08535 | 7495 ft | 280 kts | 308° |
| 2026-05-07 00:01 | 26.23530 | -80.10456 | 8174 ft | 286 kts | 294° |
| 2026-05-07 00:01 | 26.24264 | -80.12536 | 8845 ft | 290 kts | 294° |
| 2026-05-07 00:02 | 26.25011 | -80.14643 | 9483 ft | 295 kts | 294° |
| 2026-05-07 00:02 | 26.25704 | -80.16816 | 10096 ft | 301 kts | 289° |
| 2026-05-07 00:02 | 26.26315 | -80.19114 | 10316 ft | 320 kts | 289° |
| 2026-05-07 00:02 | 26.26972 | -80.21560 | 10446 ft | 338 kts | 289° |
| 2026-05-07 00:03 | 26.27669 | -80.24142 | 10639 ft | 355 kts | 289° |
| 2026-05-07 00:03 | 26.28376 | -80.26799 | 11117 ft | 360 kts | 289° |
| 2026-05-07 00:03 | 26.29084 | -80.29485 | 11655 ft | 362 kts | 288° |
| 2026-05-07 00:03 | 26.29797 | -80.32188 | 12188 ft | 365 kts | 289° |
| 2026-05-07 00:04 | 26.30517 | -80.34912 | 12731 ft | 367 kts | 289° |
| 2026-05-07 00:04 | 26.31246 | -80.37662 | 13282 ft | 370 kts | 289° |
| 2026-05-07 00:04 | 26.31971 | -80.40391 | 13836 ft | 373 kts | 289° |
| 2026-05-07 00:04 | 26.32706 | -80.43171 | 14319 ft | 375 kts | 289° |
| 2026-05-07 00:05 | 26.33441 | -80.45967 | 14828 ft | 376 kts | 289° |
| 2026-05-07 00:05 | 26.34179 | -80.48773 | 15336 ft | 378 kts | 289° |
| 2026-05-07 00:05 | 26.34925 | -80.51596 | 15846 ft | 379 kts | 289° |
| 2026-05-07 00:05 | 26.35673 | -80.54415 | 16349 ft | 380 kts | 288° |
| 2026-05-07 00:06 | 26.36423 | -80.57246 | 16864 ft | 381 kts | 288° |
| 2026-05-07 00:06 | 26.37174 | -80.60088 | 17367 ft | 383 kts | 288° |
| 2026-05-07 00:06 | 26.37924 | -80.62942 | 17851 ft | 385 kts | 287° |
| 2026-05-07 00:06 | 26.38676 | -80.65816 | 18358 ft | 387 kts | 287° |
| 2026-05-07 00:07 | 26.39431 | -80.68697 | 18804 ft | 388 kts | 288° |
| 2026-05-07 00:07 | 26.40464 | -80.71475 | 19253 ft | 388 kts | 299° |
| 2026-05-07 00:07 | 26.41961 | -80.73985 | 19728 ft | 388 kts | 310° |
| 2026-05-07 00:07 | 26.43760 | -80.76195 | 20178 ft | 389 kts | 313° |
| 2026-05-07 00:08 | 26.45603 | -80.78413 | 20671 ft | 390 kts | 313° |
| 2026-05-07 00:08 | 26.47447 | -80.80638 | 21143 ft | 391 kts | 313° |
| 2026-05-07 00:08 | 26.49297 | -80.82876 | 21590 ft | 392 kts | 313° |
| 2026-05-07 00:08 | 26.51149 | -80.85123 | 22044 ft | 393 kts | 312° |
| 2026-05-07 00:09 | 26.53006 | -80.87376 | 22483 ft | 394 kts | 312° |
| 2026-05-07 00:09 | 26.54866 | -80.89631 | 22915 ft | 395 kts | 312° |
| 2026-05-07 00:09 | 26.56732 | -80.91893 | 23321 ft | 397 kts | 312° |
| 2026-05-07 00:09 | 26.58607 | -80.94167 | 23687 ft | 399 kts | 312° |
| 2026-05-07 00:10 | 26.60487 | -80.96447 | 24035 ft | 399 kts | 312° |
| 2026-05-07 00:10 | 26.62371 | -80.98730 | 24362 ft | 400 kts | 312° |
| 2026-05-07 00:10 | 26.64260 | -81.01016 | 24670 ft | 402 kts | 312° |
| 2026-05-07 00:10 | 26.66160 | -81.03318 | 24972 ft | 403 kts | 311° |
| 2026-05-07 00:11 | 26.68037 | -81.05597 | 25256 ft | 405 kts | 311° |
| 2026-05-07 00:11 | 26.69945 | -81.07917 | 25561 ft | 406 kts | 311° |
| 2026-05-07 00:11 | 26.71860 | -81.10249 | 25846 ft | 408 kts | 311° |
| 2026-05-07 00:11 | 26.73781 | -81.12590 | 26131 ft | 409 kts | 311° |
| 2026-05-07 00:12 | 26.75714 | -81.14947 | 26411 ft | 411 kts | 311° |
| 2026-05-07 00:12 | 26.77648 | -81.17310 | 26700 ft | 413 kts | 311° |
| 2026-05-07 00:12 | 26.79592 | -81.19684 | 26977 ft | 414 kts | 311° |
| 2026-05-07 00:12 | 26.81547 | -81.22069 | 27251 ft | 416 kts | 311° |
| 2026-05-07 00:13 | 26.83506 | -81.24457 | 27524 ft | 418 kts | 311° |
| 2026-05-07 00:13 | 26.85473 | -81.26856 | 27820 ft | 419 kts | 311° |
| 2026-05-07 00:13 | 26.87447 | -81.29263 | 28096 ft | 421 kts | 311° |
| 2026-05-07 00:13 | 26.89429 | -81.31681 | 28370 ft | 422 kts | 311° |
| 2026-05-07 00:14 | 26.91413 | -81.34107 | 28771 ft | 421 kts | 311° |
| 2026-05-07 00:14 | 26.93387 | -81.36524 | 29228 ft | 418 kts | 310° |
| 2026-05-07 00:14 | 26.95344 | -81.38923 | 29664 ft | 417 kts | 310° |
| 2026-05-07 00:14 | 26.97297 | -81.41320 | 30090 ft | 415 kts | 310° |
| 2026-05-07 00:15 | 26.99246 | -81.43710 | 30456 ft | 414 kts | 310° |
| 2026-05-07 00:15 | 27.01188 | -81.46094 | 30823 ft | 413 kts | 310° |
| 2026-05-07 00:15 | 27.03097 | -81.48441 | 31186 ft | 412 kts | 310° |
| 2026-05-07 00:15 | 27.05116 | -81.50713 | 31560 ft | 412 kts | 317° |
| 2026-05-07 00:16 | 27.07451 | -81.52589 | 31921 ft | 414 kts | 324° |
| 2026-05-07 00:16 | 27.09874 | -81.54324 | 32288 ft | 412 kts | 324° |
| 2026-05-07 00:16 | 27.12287 | -81.56057 | 32669 ft | 411 kts | 324° |
| 2026-05-07 00:16 | 27.14691 | -81.57790 | 33048 ft | 410 kts | 324° |
| 2026-05-07 00:17 | 27.17087 | -81.59516 | 33433 ft | 408 kts | 324° |
| 2026-05-07 00:17 | 27.19474 | -81.61236 | 33790 ft | 405 kts | 324° |
| 2026-05-07 00:17 | 27.21846 | -81.62952 | 34015 ft | 406 kts | 324° |
| 2026-05-07 00:17 | 27.24235 | -81.64684 | 34068 ft | 412 kts | 324° |
| 2026-05-07 00:18 | 27.29109 | -81.68209 | 34073 ft | 420 kts | 324° |
| 2026-05-07 00:18 | 27.34031 | -81.71769 | 34072 ft | 421 kts | 324° |
| 2026-05-07 00:19 | 27.38921 | -81.75312 | 34073 ft | 420 kts | 324° |
| 2026-05-07 00:19 | 27.43838 | -81.78881 | 34074 ft | 420 kts | 324° |
| 2026-05-07 00:20 | 27.49055 | -81.81941 | 34078 ft | 425 kts | 333° |
| 2026-05-07 00:20 | 27.54494 | -81.84582 | 34085 ft | 425 kts | 333° |
| 2026-05-07 00:21 | 27.59903 | -81.87231 | 34095 ft | 427 kts | 332° |
| 2026-05-07 00:21 | 27.65349 | -81.89882 | 34093 ft | 426 kts | 333° |
| 2026-05-07 00:22 | 27.70792 | -81.92526 | 34090 ft | 426 kts | 332° |
| 2026-05-07 00:22 | 27.76225 | -81.95196 | 34087 ft | 426 kts | 332° |
| 2026-05-07 00:23 | 27.81658 | -81.97863 | 34082 ft | 426 kts | 333° |
| 2026-05-07 00:23 | 27.87104 | -82.00524 | 34096 ft | 427 kts | 332° |
| 2026-05-07 00:24 | 27.92550 | -82.03190 | 34092 ft | 427 kts | 332° |
| 2026-05-07 00:24 | 27.97993 | -82.05857 | 34090 ft | 426 kts | 332° |
| 2026-05-07 00:25 | 28.03419 | -82.08529 | 34083 ft | 425 kts | 332° |
| 2026-05-07 00:25 | 28.07905 | -82.10803 | 34090 ft | 423 kts | 327° |
| 2026-05-07 00:26 | 28.13522 | -82.15116 | 34096 ft | 419 kts | 321° |
| 2026-05-07 00:26 | 28.18293 | -82.18921 | 34109 ft | 419 kts | 321° |
| 2026-05-07 00:27 | 28.23066 | -82.22708 | 34103 ft | 418 kts | 321° |
| 2026-05-07 00:27 | 28.27823 | -82.26495 | 34099 ft | 418 kts | 321° |
| 2026-05-07 00:28 | 28.31769 | -82.29660 | 34097 ft | 417 kts | 321° |
| 2026-05-07 00:28 | 28.36528 | -82.33488 | 34081 ft | 424 kts | 321° |
| 2026-05-07 00:29 | 28.41385 | -82.37391 | 34081 ft | 429 kts | 321° |
| 2026-05-07 00:30 | 28.51151 | -82.45211 | 34086 ft | 428 kts | 321° |
| 2026-05-07 00:30 | 28.56011 | -82.49118 | 34080 ft | 428 kts | 320° |
| 2026-05-07 00:31 | 28.60869 | -82.53047 | 34087 ft | 428 kts | 320° |
| 2026-05-07 00:31 | 28.65732 | -82.56970 | 34089 ft | 429 kts | 320° |
| 2026-05-07 00:32 | 28.70598 | -82.60897 | 34092 ft | 429 kts | 320° |
| 2026-05-07 00:32 | 28.75434 | -82.64805 | 34099 ft | 429 kts | 320° |
| 2026-05-07 00:33 | 28.80295 | -82.68739 | 34117 ft | 428 kts | 320° |
| 2026-05-07 00:33 | 28.85154 | -82.72683 | 34116 ft | 428 kts | 320° |
| 2026-05-07 00:34 | 28.90001 | -82.76620 | 34104 ft | 427 kts | 320° |
| 2026-05-07 00:34 | 28.94851 | -82.80555 | 34097 ft | 427 kts | 320° |
| 2026-05-07 00:35 | 28.99699 | -82.84486 | 34108 ft | 428 kts | 320° |
| 2026-05-07 00:35 | 29.04545 | -82.88429 | 34091 ft | 428 kts | 320° |
| 2026-05-07 00:36 | 29.09388 | -82.92388 | 34110 ft | 427 kts | 319° |
| 2026-05-07 00:36 | 29.14225 | -82.96335 | 34107 ft | 427 kts | 319° |
| 2026-05-07 00:37 | 29.19067 | -83.00292 | 34103 ft | 427 kts | 319° |
| 2026-05-07 00:37 | 29.23863 | -83.04218 | 34101 ft | 427 kts | 319° |
| 2026-05-07 00:38 | 29.28691 | -83.08169 | 34102 ft | 426 kts | 320° |
| 2026-05-07 00:38 | 29.33525 | -83.12127 | 34101 ft | 426 kts | 319° |
| 2026-05-07 00:39 | 29.38346 | -83.16088 | 34121 ft | 426 kts | 319° |
| 2026-05-07 00:39 | 29.43156 | -83.20045 | 34111 ft | 425 kts | 319° |
| 2026-05-07 00:40 | 29.47962 | -83.23999 | 34102 ft | 425 kts | 319° |
| 2026-05-07 00:40 | 29.52769 | -83.27958 | 34100 ft | 425 kts | 319° |
| 2026-05-07 00:41 | 29.57569 | -83.31915 | 34091 ft | 425 kts | 319° |
| 2026-05-07 00:41 | 29.62369 | -83.35874 | 34090 ft | 425 kts | 319° |
| 2026-05-07 00:42 | 29.67173 | -83.39847 | 34115 ft | 425 kts | 319° |
| 2026-05-07 00:42 | 29.71935 | -83.43789 | 34113 ft | 424 kts | 319° |
| 2026-05-07 00:43 | 29.76718 | -83.47758 | 34100 ft | 423 kts | 318° |
| 2026-05-07 00:43 | 29.81503 | -83.51732 | 34099 ft | 423 kts | 319° |
| 2026-05-07 00:44 | 29.86282 | -83.55706 | 34104 ft | 423 kts | 318° |
| 2026-05-07 00:44 | 29.91061 | -83.59671 | 34100 ft | 424 kts | 318° |
| 2026-05-07 00:45 | 29.95811 | -83.63624 | 34096 ft | 424 kts | 318° |
| 2026-05-07 00:45 | 30.00596 | -83.67617 | 34108 ft | 425 kts | 318° |
| 2026-05-07 00:46 | 30.05398 | -83.71617 | 34097 ft | 425 kts | 318° |
| 2026-05-07 00:46 | 30.10200 | -83.75623 | 34094 ft | 426 kts | 318° |
| 2026-05-07 00:47 | 30.15001 | -83.79643 | 34090 ft | 426 kts | 318° |
| 2026-05-07 00:47 | 30.19448 | -83.84078 | 34086 ft | 419 kts | 309° |
| 2026-05-07 00:48 | 30.23523 | -83.88907 | 34078 ft | 420 kts | 309° |
| 2026-05-07 00:48 | 30.27601 | -83.93740 | 34083 ft | 420 kts | 309° |
| 2026-05-07 00:49 | 30.31693 | -83.98588 | 34065 ft | 422 kts | 309° |
| 2026-05-07 00:49 | 30.35792 | -84.03455 | 34056 ft | 422 kts | 309° |
| 2026-05-07 00:50 | 30.39896 | -84.08342 | 34049 ft | 423 kts | 309° |
| 2026-05-07 00:50 | 30.43995 | -84.13234 | 34049 ft | 423 kts | 309° |
| 2026-05-07 00:51 | 30.48074 | -84.18095 | 34052 ft | 423 kts | 309° |
| 2026-05-07 00:51 | 30.52184 | -84.22994 | 34055 ft | 423 kts | 309° |
| 2026-05-07 00:52 | 30.56288 | -84.27897 | 34050 ft | 423 kts | 309° |
| 2026-05-07 00:52 | 30.60393 | -84.32810 | 34071 ft | 423 kts | 309° |
| 2026-05-07 00:53 | 30.64481 | -84.37723 | 34047 ft | 423 kts | 309° |
| 2026-05-07 00:53 | 30.68560 | -84.42626 | 34046 ft | 421 kts | 309° |
| 2026-05-07 00:54 | 30.72626 | -84.47500 | 34035 ft | 420 kts | 309° |
| 2026-05-07 00:54 | 30.76677 | -84.52364 | 34027 ft | 417 kts | 309° |
| 2026-05-07 00:55 | 30.80711 | -84.57238 | 34021 ft | 419 kts | 309° |
| 2026-05-07 00:55 | 30.84757 | -84.62132 | 34035 ft | 420 kts | 309° |
| 2026-05-07 00:56 | 30.88813 | -84.67020 | 34024 ft | 419 kts | 309° |
| 2026-05-07 00:56 | 30.92856 | -84.71907 | 34023 ft | 422 kts | 309° |
| 2026-05-07 00:57 | 30.96934 | -84.76843 | 34069 ft | 423 kts | 309° |
| 2026-05-07 00:57 | 31.01007 | -84.81798 | 34058 ft | 422 kts | 309° |
| 2026-05-07 00:58 | 31.05082 | -84.86768 | 34055 ft | 425 kts | 309° |
| 2026-05-07 00:58 | 31.09181 | -84.91750 | 34046 ft | 425 kts | 309° |
| 2026-05-07 00:59 | 31.15288 | -84.99184 | 34057 ft | 421 kts | 308° |
| 2026-05-07 01:00 | 31.19340 | -85.04133 | 34042 ft | 424 kts | 308° |
| 2026-05-07 01:00 | 31.23414 | -85.09092 | 34032 ft | 422 kts | 308° |
| 2026-05-07 01:01 | 31.27468 | -85.14054 | 34037 ft | 422 kts | 308° |
| 2026-05-07 01:01 | 31.31513 | -85.19025 | 34035 ft | 421 kts | 308° |
| 2026-05-07 01:02 | 31.35554 | -85.23986 | 34032 ft | 422 kts | 308° |
| 2026-05-07 01:02 | 31.39611 | -85.28969 | 34035 ft | 422 kts | 308° |
| 2026-05-07 01:03 | 31.43669 | -85.33955 | 34052 ft | 423 kts | 308° |
| 2026-05-07 01:03 | 31.47717 | -85.38943 | 34068 ft | 421 kts | 308° |
| 2026-05-07 01:04 | 31.51737 | -85.43899 | 34056 ft | 422 kts | 308° |
| 2026-05-07 01:04 | 31.55782 | -85.48885 | 34033 ft | 423 kts | 308° |
| 2026-05-07 01:05 | 31.59838 | -85.53913 | 34018 ft | 423 kts | 308° |
| 2026-05-07 01:05 | 31.63902 | -85.58939 | 34009 ft | 424 kts | 308° |
| 2026-05-07 01:06 | 31.67958 | -85.63970 | 34014 ft | 424 kts | 308° |
| 2026-05-07 01:06 | 31.72007 | -85.68999 | 34011 ft | 424 kts | 308° |
| 2026-05-07 01:07 | 31.76062 | -85.74044 | 34022 ft | 425 kts | 307° |
| 2026-05-07 01:07 | 31.80124 | -85.79105 | 34011 ft | 426 kts | 308° |
| 2026-05-07 01:08 | 31.84188 | -85.84167 | 34004 ft | 426 kts | 308° |
| 2026-05-07 01:08 | 31.88248 | -85.89244 | 34009 ft | 425 kts | 308° |
| 2026-05-07 01:09 | 31.92305 | -85.94317 | 34012 ft | 425 kts | 308° |
| 2026-05-07 01:09 | 31.96329 | -85.99357 | 34009 ft | 425 kts | 308° |
| 2026-05-07 01:10 | 32.00385 | -86.04434 | 34001 ft | 427 kts | 308° |
| 2026-05-07 01:10 | 32.04425 | -86.09531 | 34010 ft | 425 kts | 307° |
| 2026-05-07 01:11 | 32.08475 | -86.14638 | 34005 ft | 429 kts | 307° |
| 2026-05-07 01:11 | 32.12571 | -86.19790 | 33965 ft | 430 kts | 308° |
| 2026-05-07 01:12 | 32.16649 | -86.24915 | 33952 ft | 427 kts | 308° |
| 2026-05-07 01:12 | 32.20709 | -86.30022 | 33974 ft | 424 kts | 307° |
| 2026-05-07 01:13 | 32.24068 | -86.34271 | 33987 ft | 427 kts | 308° |
| 2026-05-07 01:13 | 32.28101 | -86.39400 | 33995 ft | 425 kts | 307° |
| 2026-05-07 01:14 | 32.32787 | -86.45405 | 34008 ft | 430 kts | 308° |
| 2026-05-07 01:14 | 32.36206 | -86.49775 | 33971 ft | 434 kts | 308° |
| 2026-05-07 01:15 | 32.40305 | -86.54988 | 33971 ft | 432 kts | 308° |
| 2026-05-07 01:15 | 32.44390 | -86.60191 | 33960 ft | 431 kts | 308° |
| 2026-05-07 01:16 | 32.48457 | -86.65398 | 33954 ft | 431 kts | 307° |
| 2026-05-07 01:16 | 32.52502 | -86.70586 | 33951 ft | 431 kts | 307° |
| 2026-05-07 01:17 | 32.56565 | -86.75809 | 33950 ft | 431 kts | 307° |
| 2026-05-07 01:17 | 32.60644 | -86.81047 | 33955 ft | 433 kts | 307° |
| 2026-05-07 01:18 | 32.64739 | -86.86311 | 33951 ft | 434 kts | 307° |
| 2026-05-07 01:18 | 32.68813 | -86.91581 | 33950 ft | 433 kts | 307° |
| 2026-05-07 01:19 | 32.72891 | -86.96869 | 33933 ft | 435 kts | 307° |
| 2026-05-07 01:19 | 32.76986 | -87.02173 | 33935 ft | 436 kts | 307° |
| 2026-05-07 01:20 | 32.81104 | -87.07503 | 33934 ft | 438 kts | 307° |
| 2026-05-07 01:20 | 32.85206 | -87.12809 | 33933 ft | 438 kts | 307° |
| 2026-05-07 01:21 | 32.89324 | -87.18150 | 33940 ft | 437 kts | 306° |
| 2026-05-07 01:21 | 32.93418 | -87.23470 | 33941 ft | 435 kts | 306° |
| 2026-05-07 01:22 | 32.97503 | -87.28799 | 33932 ft | 434 kts | 306° |
| 2026-05-07 01:22 | 33.01578 | -87.34130 | 33929 ft | 435 kts | 305° |
| 2026-05-07 01:23 | 33.05646 | -87.39463 | 33927 ft | 435 kts | 304° |
| 2026-05-07 01:23 | 33.09696 | -87.44757 | 33934 ft | 435 kts | 304° |
| 2026-05-07 01:24 | 33.13771 | -87.50101 | 33968 ft | 437 kts | 304° |
| 2026-05-07 01:24 | 33.17840 | -87.55431 | 33989 ft | 431 kts | 303° |
| 2026-05-07 01:25 | 33.21874 | -87.60747 | 33971 ft | 430 kts | 303° |
| 2026-05-07 01:25 | 33.25900 | -87.66044 | 33971 ft | 430 kts | 303° |
| 2026-05-07 01:26 | 33.29874 | -87.71292 | 33971 ft | 426 kts | 303° |
| 2026-05-07 01:26 | 33.33879 | -87.76580 | 33971 ft | 432 kts | 303° |
| 2026-05-07 01:27 | 33.37981 | -87.81855 | 33953 ft | 433 kts | 303° |
| 2026-05-07 01:27 | 33.42099 | -87.87099 | 33948 ft | 432 kts | 304° |
| 2026-05-07 01:28 | 33.46194 | -87.92359 | 33956 ft | 432 kts | 304° |
| 2026-05-07 01:28 | 33.50283 | -87.97637 | 33959 ft | 431 kts | 303° |
| 2026-05-07 01:29 | 33.54374 | -88.02912 | 33962 ft | 431 kts | 304° |
| 2026-05-07 01:29 | 33.58465 | -88.08186 | 33961 ft | 431 kts | 303° |
| 2026-05-07 01:30 | 33.62541 | -88.13456 | 33960 ft | 430 kts | 303° |
| 2026-05-07 01:30 | 33.66599 | -88.18717 | 33961 ft | 429 kts | 303° |
| 2026-05-07 01:31 | 33.70612 | -88.23932 | 33947 ft | 424 kts | 301° |
| 2026-05-07 01:31 | 33.74620 | -88.29136 | 33943 ft | 424 kts | 301° |
| 2026-05-07 01:32 | 33.78625 | -88.34346 | 33970 ft | 424 kts | 301° |
| 2026-05-07 01:32 | 33.82632 | -88.39568 | 33970 ft | 424 kts | 301° |
| 2026-05-07 01:33 | 33.86606 | -88.44751 | 33972 ft | 424 kts | 301° |
| 2026-05-07 01:33 | 33.90602 | -88.49973 | 33989 ft | 424 kts | 301° |
| 2026-05-07 01:34 | 33.94590 | -88.55203 | 34028 ft | 424 kts | 301° |
| 2026-05-07 01:34 | 33.98563 | -88.60395 | 33986 ft | 420 kts | 301° |
| 2026-05-07 01:35 | 34.02509 | -88.65565 | 33999 ft | 419 kts | 301° |
| 2026-05-07 01:35 | 34.06447 | -88.70744 | 34003 ft | 419 kts | 301° |
| 2026-05-07 01:36 | 34.10385 | -88.75931 | 34006 ft | 418 kts | 301° |
| 2026-05-07 01:36 | 34.14312 | -88.81109 | 34000 ft | 418 kts | 301° |
| 2026-05-07 01:37 | 34.18217 | -88.86259 | 34004 ft | 418 kts | 301° |
| 2026-05-07 01:37 | 34.22140 | -88.91437 | 34036 ft | 417 kts | 300° |
| 2026-05-07 01:38 | 34.26029 | -88.96590 | 33986 ft | 414 kts | 300° |
| 2026-05-07 01:38 | 34.29906 | -89.01752 | 33992 ft | 415 kts | 300° |
| 2026-05-07 01:39 | 34.33794 | -89.06917 | 34008 ft | 415 kts | 300° |
| 2026-05-07 01:39 | 34.37695 | -89.12091 | 34015 ft | 415 kts | 300° |
| 2026-05-07 01:40 | 34.41585 | -89.17267 | 34023 ft | 415 kts | 300° |
| 2026-05-07 01:40 | 34.45468 | -89.22450 | 34024 ft | 416 kts | 300° |
| 2026-05-07 01:41 | 34.49326 | -89.27598 | 34037 ft | 413 kts | 300° |
| 2026-05-07 01:41 | 34.53179 | -89.32739 | 34041 ft | 411 kts | 300° |
| 2026-05-07 01:42 | 34.57014 | -89.37882 | 34038 ft | 411 kts | 300° |
| 2026-05-07 01:42 | 34.60842 | -89.43033 | 34041 ft | 411 kts | 300° |
| 2026-05-07 01:43 | 34.64677 | -89.48184 | 34049 ft | 411 kts | 300° |
| 2026-05-07 01:43 | 34.68510 | -89.53337 | 34051 ft | 411 kts | 300° |
| 2026-05-07 01:44 | 34.72340 | -89.58496 | 34049 ft | 411 kts | 300° |
| 2026-05-07 01:44 | 34.76159 | -89.63650 | 34041 ft | 407 kts | 299° |
| 2026-05-07 01:45 | 34.79938 | -89.68769 | 34037 ft | 406 kts | 299° |
| 2026-05-07 01:45 | 34.83695 | -89.73865 | 34037 ft | 407 kts | 299° |
| 2026-05-07 01:46 | 34.87480 | -89.79003 | 34034 ft | 407 kts | 299° |
| 2026-05-07 01:46 | 34.91263 | -89.84135 | 34038 ft | 407 kts | 299° |
| 2026-05-07 01:47 | 34.95049 | -89.89279 | 34044 ft | 407 kts | 299° |
| 2026-05-07 01:47 | 34.98837 | -89.94434 | 34063 ft | 407 kts | 299° |
| 2026-05-07 01:48 | 35.02575 | -89.99531 | 34077 ft | 404 kts | 298° |
| 2026-05-07 01:48 | 35.06327 | -90.04651 | 34076 ft | 404 kts | 298° |
| 2026-05-07 01:49 | 35.10068 | -90.09759 | 34066 ft | 403 kts | 298° |
| 2026-05-07 01:49 | 35.13801 | -90.14877 | 34062 ft | 403 kts | 298° |
| 2026-05-07 01:50 | 35.17521 | -90.19991 | 34082 ft | 402 kts | 298° |
| 2026-05-07 01:50 | 35.21246 | -90.25115 | 34081 ft | 403 kts | 298° |
| 2026-05-07 01:51 | 35.24970 | -90.30234 | 34128 ft | 402 kts | 298° |
| 2026-05-07 01:51 | 35.28663 | -90.35314 | 34073 ft | 398 kts | 298° |
| 2026-05-07 01:52 | 35.32332 | -90.40383 | 34086 ft | 397 kts | 298° |
| 2026-05-07 01:52 | 35.35995 | -90.45451 | 34085 ft | 397 kts | 298° |
| 2026-05-07 01:53 | 35.39654 | -90.50517 | 34089 ft | 397 kts | 298° |
| 2026-05-07 01:53 | 35.43318 | -90.55593 | 34088 ft | 397 kts | 298° |
| 2026-05-07 01:54 | 35.46945 | -90.60637 | 34087 ft | 397 kts | 298° |
| 2026-05-07 01:54 | 35.50600 | -90.65718 | 34142 ft | 396 kts | 298° |
| 2026-05-07 01:55 | 35.54241 | -90.70791 | 34091 ft | 395 kts | 298° |
| 2026-05-07 01:55 | 35.57879 | -90.75866 | 34080 ft | 396 kts | 298° |
| 2026-05-07 01:56 | 35.61502 | -90.80924 | 34085 ft | 397 kts | 297° |
| 2026-05-07 01:56 | 35.65152 | -90.86025 | 34078 ft | 397 kts | 297° |
| 2026-05-07 01:57 | 35.68799 | -90.91140 | 34079 ft | 398 kts | 297° |
| 2026-05-07 01:57 | 35.72460 | -90.96272 | 34105 ft | 399 kts | 297° |
| 2026-05-07 01:58 | 35.76121 | -91.01414 | 34130 ft | 399 kts | 297° |
| 2026-05-07 01:58 | 35.79736 | -91.06492 | 34114 ft | 396 kts | 296° |
| 2026-05-07 01:59 | 35.83360 | -91.11607 | 34122 ft | 397 kts | 296° |
| 2026-05-07 01:59 | 35.86986 | -91.16744 | 34110 ft | 396 kts | 296° |
| 2026-05-07 02:00 | 35.90607 | -91.21867 | 34112 ft | 396 kts | 296° |
| 2026-05-07 02:00 | 35.94236 | -91.26992 | 34107 ft | 396 kts | 296° |
| 2026-05-07 02:01 | 35.97250 | -91.31259 | 34102 ft | 396 kts | 296° |
| 2026-05-07 02:01 | 36.01447 | -91.37226 | 34100 ft | 395 kts | 296° |
| 2026-05-07 02:02 | 36.05050 | -91.42357 | 34099 ft | 395 kts | 296° |
| 2026-05-07 02:02 | 36.08072 | -91.46658 | 34095 ft | 395 kts | 296° |
| 2026-05-07 02:03 | 36.11687 | -91.51810 | 34098 ft | 395 kts | 296° |
| 2026-05-07 02:03 | 36.15262 | -91.56919 | 34115 ft | 394 kts | 296° |
| 2026-05-07 02:04 | 36.18842 | -91.62040 | 34114 ft | 393 kts | 296° |
| 2026-05-07 02:04 | 36.22415 | -91.67156 | 34111 ft | 392 kts | 296° |
| 2026-05-07 02:05 | 36.25967 | -91.72244 | 34100 ft | 386 kts | 295° |
| 2026-05-07 02:05 | 36.29467 | -91.77257 | 34082 ft | 383 kts | 295° |
| 2026-05-07 02:06 | 36.32937 | -91.82275 | 34083 ft | 384 kts | 295° |
| 2026-05-07 02:06 | 36.36419 | -91.87302 | 34092 ft | 385 kts | 295° |
| 2026-05-07 02:07 | 36.39921 | -91.92344 | 34087 ft | 383 kts | 295° |
| 2026-05-07 02:07 | 36.45135 | -91.99869 | 34072 ft | 384 kts | 295° |
| 2026-05-07 02:08 | 36.48622 | -92.04932 | 34137 ft | 385 kts | 295° |
| 2026-05-07 02:08 | 36.52115 | -92.09994 | 34118 ft | 386 kts | 295° |
| 2026-05-07 02:09 | 36.55604 | -92.15065 | 34113 ft | 385 kts | 295° |
| 2026-05-07 02:09 | 36.59074 | -92.20138 | 34108 ft | 386 kts | 295° |
| 2026-05-07 02:10 | 36.62554 | -92.25190 | 34109 ft | 386 kts | 295° |
| 2026-05-07 02:10 | 36.66045 | -92.30246 | 34101 ft | 385 kts | 295° |
| 2026-05-07 02:11 | 36.69500 | -92.35307 | 34088 ft | 384 kts | 294° |
| 2026-05-07 02:11 | 36.72992 | -92.40416 | 34162 ft | 388 kts | 295° |
| 2026-05-07 02:12 | 36.76458 | -92.45485 | 34089 ft | 381 kts | 294° |
| 2026-05-07 02:12 | 36.79885 | -92.50538 | 34085 ft | 382 kts | 294° |
| 2026-05-07 02:13 | 36.83329 | -92.55609 | 34091 ft | 383 kts | 294° |
| 2026-05-07 02:13 | 36.86699 | -92.60577 | 34100 ft | 383 kts | 294° |
| 2026-05-07 02:14 | 36.90202 | -92.65731 | 34107 ft | 384 kts | 295° |
| 2026-05-07 02:14 | 36.93652 | -92.70812 | 34107 ft | 383 kts | 295° |
| 2026-05-07 02:15 | 36.97102 | -92.75912 | 34137 ft | 382 kts | 294° |
| 2026-05-07 02:15 | 37.00512 | -92.80959 | 34106 ft | 378 kts | 294° |
| 2026-05-07 02:16 | 37.03902 | -92.86003 | 34107 ft | 379 kts | 294° |
| 2026-05-07 02:16 | 37.07304 | -92.91063 | 34107 ft | 379 kts | 294° |
| 2026-05-07 02:17 | 37.10680 | -92.96087 | 34102 ft | 379 kts | 294° |
| 2026-05-07 02:17 | 37.14101 | -93.01180 | 34108 ft | 380 kts | 294° |
| 2026-05-07 02:18 | 37.17472 | -93.06213 | 34117 ft | 379 kts | 294° |
| 2026-05-07 02:18 | 37.20862 | -93.11292 | 34122 ft | 378 kts | 294° |
| 2026-05-07 02:19 | 37.24231 | -93.16333 | 34112 ft | 376 kts | 294° |
| 2026-05-07 02:19 | 37.27594 | -93.21375 | 34095 ft | 376 kts | 294° |
| 2026-05-07 02:20 | 37.30954 | -93.26430 | 34102 ft | 377 kts | 294° |
| 2026-05-07 02:20 | 37.34315 | -93.31439 | 34101 ft | 383 kts | 298° |
| 2026-05-07 02:21 | 37.36418 | -93.33676 | 34106 ft | 411 kts | 309° |
| 2026-05-07 02:21 | 37.39046 | -93.35401 | 34107 ft | 434 kts | 317° |
| 2026-05-07 02:21 | 37.44584 | -93.38473 | 34128 ft | 435 kts | 318° |
| 2026-05-07 02:22 | 37.50124 | -93.41513 | 34112 ft | 434 kts | 318° |
| 2026-05-07 02:22 | 37.55644 | -93.44592 | 34110 ft | 434 kts | 317° |
| 2026-05-07 02:23 | 37.61152 | -93.47694 | 34113 ft | 434 kts | 317° |
| 2026-05-07 02:23 | 37.66662 | -93.50802 | 34186 ft | 434 kts | 317° |
| 2026-05-07 02:24 | 37.72161 | -93.53895 | 34108 ft | 432 kts | 317° |
| 2026-05-07 02:24 | 37.77649 | -93.56986 | 34107 ft | 432 kts | 317° |
| 2026-05-07 02:25 | 37.83136 | -93.60082 | 33076 ft | 429 kts | 317° |
| 2026-05-07 02:25 | 37.85851 | -93.61609 | 31940 ft | 426 kts | 317° |
| 2026-05-07 02:25 | 37.88552 | -93.63136 | 31326 ft | 423 kts | 317° |
| 2026-05-07 02:26 | 37.91226 | -93.64641 | 30817 ft | 418 kts | 317° |
| 2026-05-07 02:26 | 37.93887 | -93.66135 | 30213 ft | 416 kts | 318° |
| 2026-05-07 02:26 | 37.96525 | -93.67603 | 29583 ft | 412 kts | 319° |
| 2026-05-07 02:26 | 37.99138 | -93.69043 | 29024 ft | 406 kts | 319° |
| 2026-05-07 02:27 | 38.01715 | -93.70455 | 28470 ft | 401 kts | 320° |
| 2026-05-07 02:27 | 38.04258 | -93.71852 | 27930 ft | 396 kts | 320° |
| 2026-05-07 02:27 | 38.06748 | -93.73226 | 27396 ft | 392 kts | 320° |
| 2026-05-07 02:27 | 38.09235 | -93.74606 | 26866 ft | 389 kts | 321° |
| 2026-05-07 02:28 | 38.11701 | -93.75979 | 26351 ft | 385 kts | 321° |
| 2026-05-07 02:28 | 38.14142 | -93.77348 | 25872 ft | 383 kts | 323° |
| 2026-05-07 02:28 | 38.16570 | -93.78729 | 25337 ft | 382 kts | 323° |
| 2026-05-07 02:28 | 38.18990 | -93.80109 | 24854 ft | 379 kts | 324° |
| 2026-05-07 02:29 | 38.21391 | -93.81481 | 24379 ft | 377 kts | 325° |
| 2026-05-07 02:29 | 38.23780 | -93.82846 | 23914 ft | 376 kts | 326° |
| 2026-05-07 02:29 | 38.26164 | -93.84204 | 23434 ft | 374 kts | 327° |
| 2026-05-07 02:29 | 38.28535 | -93.85557 | 22970 ft | 371 kts | 327° |
| 2026-05-07 02:30 | 38.30884 | -93.86894 | 22513 ft | 368 kts | 327° |
| 2026-05-07 02:30 | 38.33213 | -93.88217 | 22066 ft | 365 kts | 327° |
| 2026-05-07 02:30 | 38.35531 | -93.89536 | 21601 ft | 363 kts | 327° |
| 2026-05-07 02:30 | 38.37792 | -93.90828 | 21148 ft | 360 kts | 327° |
| 2026-05-07 02:31 | 38.40070 | -93.92130 | 20634 ft | 358 kts | 327° |
| 2026-05-07 02:31 | 38.42334 | -93.93426 | 20186 ft | 355 kts | 328° |
| 2026-05-07 02:31 | 38.44580 | -93.94714 | 19705 ft | 353 kts | 328° |
| 2026-05-07 02:31 | 38.46825 | -93.96001 | 19220 ft | 351 kts | 328° |
| 2026-05-07 02:32 | 38.49050 | -93.97277 | 18737 ft | 350 kts | 328° |
| 2026-05-07 02:32 | 38.51266 | -93.98547 | 18160 ft | 350 kts | 328° |
| 2026-05-07 02:32 | 38.53483 | -93.99819 | 17599 ft | 348 kts | 329° |
| 2026-05-07 02:32 | 38.55682 | -94.01080 | 17114 ft | 345 kts | 329° |
| 2026-05-07 02:33 | 38.57866 | -94.02330 | 16625 ft | 342 kts | 329° |
| 2026-05-07 02:33 | 38.60000 | -94.03550 | 16152 ft | 340 kts | 330° |
| 2026-05-07 02:33 | 38.62152 | -94.04787 | 15659 ft | 338 kts | 330° |
| 2026-05-07 02:33 | 38.64291 | -94.06017 | 15155 ft | 336 kts | 330° |
| 2026-05-07 02:34 | 38.66418 | -94.07243 | 14687 ft | 334 kts | 331° |
| 2026-05-07 02:34 | 38.68466 | -94.08603 | 14182 ft | 329 kts | 322° |
| 2026-05-07 02:34 | 38.70253 | -94.10399 | 13675 ft | 325 kts | 316° |
| 2026-05-07 02:34 | 38.71976 | -94.12265 | 13185 ft | 322 kts | 316° |
| 2026-05-07 02:35 | 38.73690 | -94.14115 | 12708 ft | 320 kts | 316° |
| 2026-05-07 02:35 | 38.75387 | -94.15942 | 12241 ft | 317 kts | 317° |
| 2026-05-07 02:35 | 38.77050 | -94.17734 | 11797 ft | 315 kts | 317° |
| 2026-05-07 02:35 | 38.78719 | -94.19527 | 11391 ft | 312 kts | 317° |
| 2026-05-07 02:36 | 38.80378 | -94.21311 | 10975 ft | 310 kts | 317° |
| 2026-05-07 02:36 | 38.82023 | -94.23082 | 10560 ft | 308 kts | 317° |
| 2026-05-07 02:36 | 38.83643 | -94.24830 | 10351 ft | 299 kts | 317° |
| 2026-05-07 02:36 | 38.85208 | -94.26520 | 10226 ft | 288 kts | 317° |
| 2026-05-07 02:37 | 38.86714 | -94.28143 | 10080 ft | 279 kts | 317° |
| 2026-05-07 02:37 | 38.88183 | -94.29729 | 9877 ft | 272 kts | 317° |
| 2026-05-07 02:37 | 38.89619 | -94.31315 | 9714 ft | 271 kts | 313° |
| 2026-05-07 02:37 | 38.90775 | -94.33201 | 9462 ft | 267 kts | 298° |
| 2026-05-07 02:38 | 38.91649 | -94.35303 | 9201 ft | 266 kts | 297° |
| 2026-05-07 02:38 | 38.92514 | -94.37398 | 8935 ft | 265 kts | 297° |
| 2026-05-07 02:38 | 38.93369 | -94.39465 | 8678 ft | 264 kts | 298° |
| 2026-05-07 02:38 | 38.94232 | -94.41544 | 8413 ft | 264 kts | 298° |
| 2026-05-07 02:39 | 38.95092 | -94.43618 | 8153 ft | 263 kts | 298° |
| 2026-05-07 02:39 | 38.95947 | -94.45683 | 7889 ft | 262 kts | 298° |
| 2026-05-07 02:39 | 38.96800 | -94.47747 | 7629 ft | 261 kts | 299° |
| 2026-05-07 02:39 | 38.97649 | -94.49804 | 7371 ft | 259 kts | 299° |
| 2026-05-07 02:40 | 38.98495 | -94.51854 | 7112 ft | 259 kts | 299° |
| 2026-05-07 02:40 | 38.99337 | -94.53897 | 6851 ft | 258 kts | 300° |
| 2026-05-07 02:40 | 39.00173 | -94.55930 | 6577 ft | 257 kts | 300° |
| 2026-05-07 02:40 | 39.01009 | -94.57962 | 6305 ft | 257 kts | 300° |
| 2026-05-07 02:41 | 39.01840 | -94.59986 | 6047 ft | 255 kts | 300° |
| 2026-05-07 02:41 | 39.02666 | -94.62008 | 5785 ft | 255 kts | 299° |
| 2026-05-07 02:41 | 39.03488 | -94.64031 | 5520 ft | 255 kts | 298° |
| 2026-05-07 02:41 | 39.04286 | -94.65995 | 5401 ft | 246 kts | 298° |
| 2026-05-07 02:42 | 39.05062 | -94.67905 | 5305 ft | 236 kts | 298° |
| 2026-05-07 02:42 | 39.05808 | -94.69736 | 5211 ft | 226 kts | 298° |
| 2026-05-07 02:42 | 39.06526 | -94.71479 | 5111 ft | 216 kts | 302° |
| 2026-05-07 02:42 | 39.07475 | -94.72893 | 5012 ft | 204 kts | 322° |
| 2026-05-07 02:43 | 39.08669 | -94.73748 | 5022 ft | 189 kts | 340° |
| 2026-05-07 02:43 | 39.09881 | -94.74171 | 5026 ft | 172 kts | 343° |
| 2026-05-07 02:43 | 39.11011 | -94.74550 | 4841 ft | 166 kts | 343° |
| 2026-05-07 02:43 | 39.12119 | -94.74927 | 4518 ft | 165 kts | 343° |
| 2026-05-07 02:44 | 39.13239 | -94.75156 | 4148 ft | 163 kts | 2° |
| 2026-05-07 02:44 | 39.14326 | -94.74909 | 3883 ft | 155 kts | 8° |
| 2026-05-07 02:44 | 39.15348 | -94.74645 | 3654 ft | 148 kts | 9° |
| 2026-05-07 02:44 | 39.16345 | -94.74367 | 3452 ft | 145 kts | 10° |
| 2026-05-07 02:45 | 39.17332 | -94.74086 | 3250 ft | 146 kts | 12° |
| 2026-05-07 02:45 | 39.18321 | -94.73799 | 3054 ft | 146 kts | 11° |
| 2026-05-07 02:45 | 39.19306 | -94.73509 | 2850 ft | 144 kts | 12° |
| 2026-05-07 02:45 | 39.20287 | -94.73221 | 2660 ft | 144 kts | 11° |
| 2026-05-07 02:46 | 39.21271 | -94.72929 | 2462 ft | 145 kts | 12° |
| 2026-05-07 02:46 | 39.21918 | -94.72738 | 2338 ft | 144 kts | 12° |
| 2026-05-07 02:46 | 39.23228 | -94.72354 | 2068 ft | 143 kts | 12° |
| 2026-05-07 02:46 | 39.23878 | -94.72161 | 1942 ft | 145 kts | 13° |
| 2026-05-07 02:47 | 39.24859 | -94.71873 | 1747 ft | 143 kts | 12° |
| 2026-05-07 02:47 | 39.25825 | -94.71584 | 1522 ft | 143 kts | 12° |
| 2026-05-07 02:47 | 39.26792 | -94.71299 | 1311 ft | 141 kts | 13° |
| 2026-05-07 02:47 | 39.27747 | -94.71022 | 1139 ft | 141 kts | 13° |
| 2026-05-07 02:48 | 39.28689 | -94.70735 | 1028 ft | 133 kts | 13° |
| 2026-05-07 02:48 | 39.29461 | -94.70506 | 1014 ft | 90 kts | 13° |
| 2026-05-07 02:48 | 39.29908 | -94.70381 | 1014 ft | 41 kts | 12° |
| 2026-05-07 02:48 | 39.30046 | -94.70387 | 1014 ft | 13 kts | 341° |
| 2026-05-07 02:49 | 39.30101 | -94.70471 | 1014 ft | 13 kts | 257° |
| 2026-05-07 02:49 | 39.30018 | -94.70512 | 1015 ft | 14 kts | 191° |
| 2026-05-07 02:49 | 39.29913 | -94.70536 | 1015 ft | 16 kts | 190° |
| 2026-05-07 02:49 | 39.29795 | -94.70566 | 1015 ft | 18 kts | 197° |
| 2026-05-07 02:50 | 39.29664 | -94.70609 | 1014 ft | 21 kts | 193° |
| 2026-05-07 02:50 | 39.29514 | -94.70651 | 1014 ft | 23 kts | 188° |
| 2026-05-07 02:50 | 39.29349 | -94.70700 | 1014 ft | 26 kts | 197° |
| 2026-05-07 02:50 | 39.29172 | -94.70762 | 1014 ft | 28 kts | 191° |
| 2026-05-07 02:51 | 39.29066 | -94.70833 | 1014 ft | 15 kts | 254° |
| 2026-05-07 02:51 | 39.29077 | -94.70974 | 1014 ft | 17 kts | 282° |
| 2026-05-07 02:51 | 39.29153 | -94.71099 | 1014 ft | 19 kts | 311° |
| 2026-05-07 02:51 | 39.29184 | -94.71271 | 1014 ft | 21 kts | 276° |
| 2026-05-07 02:52 | 39.29198 | -94.71470 | 1015 ft | 23 kts | 275° |
| 2026-05-07 02:52 | 39.29215 | -94.71690 | 1015 ft | 26 kts | 276° |
| 2026-05-07 02:52 | 39.29235 | -94.71911 | 1015 ft | 21 kts | 274° |
| 2026-05-07 02:52 | 39.29256 | -94.72111 | 1014 ft | 24 kts | 279° |
| 2026-05-07 02:53 | 39.29290 | -94.72288 | 1014 ft | 14 kts | 316° |
| 2026-05-07 02:53 | 39.29386 | -94.72327 | 1014 ft | 15 kts | 359° |
| 2026-05-07 02:53 | 39.29502 | -94.72309 | 1014 ft | 18 kts | 7° |
| 2026-05-07 02:53 | 39.29609 | -94.72220 | 1014 ft | 18 kts | 44° |
| 2026-05-07 02:54 | 39.29698 | -94.72164 | 1014 ft | 11 kts | 302° |
| 2026-05-07 02:54 | 39.29703 | -94.72185 | 1014 ft | 0 kts | 286° |
| 2026-05-07 02:55 | 39.29707 | -94.72204 | 1014 ft | 5 kts | 286° |
| 2026-05-07 02:55 | 39.29715 | -94.72243 | 1014 ft | 3 kts | 285° |
| 2026-05-07 02:55 | 39.29715 | -94.72244 | 1014 ft | 0 kts | 285° |